createdAt,value
2022-09-14T00:01:37.686Z,8.23
2022-09-14T00:04:08.493Z,7.70
2022-09-14T00:06:35.977Z,8.70
2022-09-14T00:09:06.935Z,7.65
2022-09-14T00:11:35.889Z,7.35
2022-09-14T00:14:05.001Z,8.32
2022-09-14T00:16:35.402Z,8.68
2022-09-14T00:19:06.528Z,8.35
2022-09-14T00:21:38.741Z,7.97
2022-09-14T00:24:09.616Z,8.13
2022-09-14T00:26:37.613Z,7.78
2022-09-14T00:29:05.683Z,8.63
2022-09-14T00:31:39.143Z,9.10
2022-09-14T00:34:09.682Z,6.90
2022-09-14T00:36:47.363Z,8.13
2022-09-14T00:39:16.227Z,7.40
2022-09-14T00:41:45.464Z,6.22
2022-09-14T00:44:14.065Z,5.07
2022-09-14T00:46:47.002Z,4.88
2022-09-14T00:49:20.694Z,5.47
2022-09-14T00:52:08.943Z,3.95
2022-09-14T00:54:43.514Z,4.57
2022-09-14T00:57:11.702Z,4.40
2022-09-14T00:59:41.714Z,4.18
2022-09-14T01:02:12.232Z,3.93
2022-09-14T01:04:39.785Z,4.28
2022-09-14T01:07:31.987Z,3.70
2022-09-14T01:10:14.618Z,3.47
2022-09-14T01:12:41.967Z,4.40
2022-09-14T01:15:31.020Z,4.00
2022-09-14T01:18:24.618Z,3.78
2022-09-14T01:21:12.494Z,5.07
2022-09-14T01:23:59.985Z,3.97
2022-09-14T01:26:41.059Z,4.68
2022-09-14T01:32:13.240Z,4.30
2022-09-14T01:34:46.096Z,5.47
2022-09-14T01:37:24.324Z,5.35
2022-09-14T01:40:15.525Z,5.07
2022-09-14T01:42:49.083Z,4.85
2022-09-14T01:45:19.163Z,5.38
2022-09-14T01:47:52.820Z,5.07
2022-09-14T01:50:31.833Z,5.43
2022-09-14T01:53:09.170Z,4.82
2022-09-14T01:56:07.164Z,4.63
2022-09-14T01:58:50.334Z,5.05
2022-09-14T02:01:24.638Z,5.28
2022-09-14T02:03:57.547Z,4.60
2022-09-14T02:06:37.063Z,3.42
2022-09-14T02:09:06.697Z,5.18
2022-09-14T02:11:34.134Z,3.20
2022-09-14T02:14:02.018Z,3.15
2022-09-14T02:16:29.854Z,2.55
2022-09-14T02:18:59.110Z,3.10
2022-09-14T02:21:29.822Z,2.90
2022-09-14T02:23:59.987Z,2.15
2022-09-14T02:26:28.451Z,2.42
2022-09-14T02:28:57.254Z,2.42
2022-09-14T02:31:57.228Z,2.08
2022-09-14T02:34:54.967Z,2.20
2022-09-14T02:37:22.315Z,2.78
2022-09-14T02:40:04.984Z,2.60
2022-09-14T02:43:11.274Z,2.53
2022-09-14T02:45:50.523Z,3.03
2022-09-14T02:48:38.130Z,3.03
2022-09-14T02:51:15.970Z,3.35
2022-09-14T02:53:48.558Z,3.58
2022-09-14T02:56:17.876Z,4.80
2022-09-14T02:58:45.856Z,7.15
2022-09-14T03:01:17.575Z,7.05
2022-09-14T03:03:45.235Z,7.10
2022-09-14T03:06:13.046Z,8.80
2022-09-14T03:08:41.570Z,10.60
2022-09-14T03:11:09.327Z,8.40
2022-09-14T03:13:37.331Z,9.77
2022-09-14T03:16:06.725Z,8.65
2022-09-14T03:18:35.465Z,8.93
2022-09-14T03:21:14.932Z,9.35
2022-09-14T03:23:45.109Z,8.63
2022-09-14T03:26:15.336Z,9.80
2022-09-14T03:28:43.422Z,10.30
2022-09-14T03:31:12.455Z,9.70
2022-09-14T03:33:40.673Z,11.68
2022-09-14T03:36:18.092Z,10.27
2022-09-14T03:38:51.978Z,11.85
2022-09-14T03:41:20.504Z,10.88
2022-09-14T03:43:48.325Z,11.15
2022-09-14T03:46:18.782Z,10.55
2022-09-14T03:48:46.153Z,11.55
2022-09-14T03:51:14.310Z,10.48
2022-09-14T03:53:43.039Z,12.75
2022-09-14T03:56:15.095Z,12.68
2022-09-14T03:58:44.163Z,14.10
2022-09-14T04:01:14.579Z,11.32
2022-09-14T04:03:42.516Z,10.50
2022-09-14T04:06:10.507Z,12.50
2022-09-14T04:08:40.648Z,11.55
2022-09-14T04:11:10.665Z,12.18
2022-09-14T04:13:38.378Z,12.87
2022-09-14T04:16:06.029Z,12.98
2022-09-14T04:18:34.130Z,13.00
2022-09-14T04:21:08.275Z,12.25
2022-09-14T04:23:56.608Z,12.80
2022-09-14T04:26:28.667Z,12.68
2022-09-14T04:28:57.186Z,13.35
2022-09-14T04:31:25.345Z,14.05
2022-09-14T04:33:56.300Z,15.05
2022-09-14T04:36:28.459Z,15.57
2022-09-14T04:38:58.151Z,14.55
2022-09-14T04:41:26.777Z,16.67
2022-09-14T04:43:55.872Z,16.98
2022-09-14T04:46:32.134Z,17.13
2022-09-14T04:48:59.757Z,16.30
2022-09-14T04:51:29.818Z,16.73
2022-09-14T04:53:59.339Z,15.90
2022-09-14T04:56:28.244Z,16.75
2022-09-14T04:59:00.903Z,15.43
2022-09-14T05:01:31.390Z,15.80
2022-09-14T05:03:59.180Z,13.98
2022-09-14T05:06:29.927Z,16.27
2022-09-14T05:09:00.026Z,15.05
2022-09-14T05:11:30.726Z,15.30
2022-09-14T05:14:00.265Z,16.30
2022-09-14T05:16:38.877Z,17.77
2022-09-14T05:19:09.416Z,15.82
2022-09-14T05:21:37.959Z,18.50
2022-09-14T05:24:08.186Z,16.70
2022-09-14T05:26:35.748Z,16.27
2022-09-14T05:29:03.299Z,16.05
2022-09-14T05:31:32.213Z,15.73
2022-09-14T05:33:59.964Z,14.98
2022-09-14T05:36:27.504Z,14.57
2022-09-14T05:38:55.073Z,14.13
2022-09-14T05:41:22.627Z,14.18
2022-09-14T05:43:50.074Z,14.00
2022-09-14T05:46:22.143Z,15.18
2022-09-14T05:48:51.821Z,13.38
2022-09-14T05:51:22.324Z,13.27
2022-09-14T05:53:57.689Z,12.98
2022-09-14T05:56:27.334Z,13.27
2022-09-14T05:58:55.571Z,12.40
2022-09-14T06:01:25.527Z,9.90
2022-09-14T06:03:54.752Z,11.87
2022-09-14T06:06:23.093Z,11.48
2022-09-14T06:08:52.743Z,10.43
2022-09-14T06:11:32.636Z,11.63
2022-09-14T06:14:00.518Z,9.73
2022-09-14T06:16:28.926Z,9.75
2022-09-14T06:18:58.215Z,8.60
2022-09-14T06:21:30.491Z,8.18
2022-09-14T06:23:58.646Z,9.52
2022-09-14T06:26:26.648Z,8.65
2022-09-14T06:28:54.506Z,9.25
2022-09-14T06:31:25.471Z,9.00
2022-09-14T06:33:53.680Z,8.13
2022-09-14T06:36:26.862Z,8.60
2022-09-14T06:38:55.409Z,6.95
2022-09-14T06:41:29.034Z,7.20
2022-09-14T06:43:58.526Z,6.82
2022-09-14T06:46:34.132Z,6.55
2022-09-14T06:49:13.810Z,5.90
2022-09-14T06:51:43.758Z,6.53
2022-09-14T06:54:13.122Z,5.97
2022-09-14T06:56:42.135Z,6.65
2022-09-14T06:59:11.862Z,5.90
2022-09-14T07:01:40.232Z,7.32
2022-09-14T07:04:08.755Z,6.05
2022-09-14T07:06:42.449Z,7.07
2022-09-14T07:09:10.151Z,7.38
2022-09-14T07:11:38.493Z,6.63
2022-09-14T07:14:06.658Z,6.18
2022-09-14T07:16:36.299Z,7.00
2022-09-14T07:19:07.575Z,6.43
2022-09-14T07:21:35.750Z,6.10
2022-09-14T07:24:03.760Z,6.80
2022-09-14T07:26:39.386Z,7.82
2022-09-14T07:29:13.594Z,6.75
2022-09-14T07:31:50.599Z,6.40
2022-09-14T07:34:18.623Z,6.55
2022-09-14T07:36:46.696Z,6.85
2022-09-14T07:39:15.974Z,7.00
2022-09-14T07:41:44.205Z,5.97
2022-09-14T07:44:15.283Z,6.50
2022-09-14T07:49:11.905Z,6.20
2022-09-14T07:51:40.312Z,5.30
2022-09-14T07:54:11.289Z,5.38
2022-09-14T07:59:33.561Z,6.10
2022-09-14T08:01:54.135Z,6.35
2022-09-14T08:04:21.718Z,5.05
2022-09-14T08:06:49.080Z,5.20
2022-09-14T08:09:16.531Z,6.10
2022-09-14T08:11:43.991Z,5.07
2022-09-14T08:14:14.021Z,6.82
2022-09-14T08:16:41.862Z,6.80
2022-09-14T08:19:16.714Z,7.45
2022-09-14T08:21:47.174Z,6.50
2022-09-14T08:24:18.429Z,7.95
2022-09-14T08:26:47.043Z,7.25
2022-09-14T08:29:16.761Z,6.68
2022-09-14T08:31:46.146Z,7.82
2022-09-14T08:34:15.038Z,8.35
2022-09-14T08:36:43.574Z,8.68
2022-09-14T08:39:12.910Z,7.60
2022-09-14T08:41:43.588Z,6.82
2022-09-14T08:44:31.492Z,8.38
2022-09-14T08:47:00.158Z,6.90
2022-09-14T08:49:47.466Z,6.43
2022-09-14T08:52:42.497Z,7.18
2022-09-14T08:55:34.546Z,6.60
2022-09-14T08:58:12.975Z,6.43
2022-09-14T09:00:51.564Z,7.22
2022-09-14T09:03:51.340Z,5.82
2022-09-14T09:06:41.615Z,6.68
2022-09-14T09:09:12.334Z,7.47
2022-09-14T09:11:46.643Z,7.78
2022-09-14T09:14:26.035Z,6.43
2022-09-14T09:16:57.622Z,6.20
2022-09-14T09:19:32.013Z,6.15
2022-09-14T09:22:03.377Z,6.05
2022-09-14T09:24:39.241Z,5.32
2022-09-14T09:27:11.725Z,5.18
2022-09-14T09:29:39.262Z,5.53
2022-09-14T09:32:25.239Z,5.55
2022-09-14T09:35:19.895Z,5.15
2022-09-14T09:38:00.227Z,5.25
2022-09-14T09:40:41.418Z,5.00
2022-09-14T09:43:11.600Z,5.13
2022-09-14T09:46:03.230Z,4.75
2022-09-14T09:48:41.991Z,5.20
2022-09-14T09:51:28.369Z,5.00
2022-09-14T09:54:03.338Z,5.00
2022-09-14T09:56:37.772Z,5.32
2022-09-14T09:59:23.455Z,4.47
2022-09-14T10:01:54.673Z,4.57
2022-09-14T10:04:28.087Z,4.63
2022-09-14T10:06:57.655Z,4.30
2022-09-14T10:09:27.564Z,5.25
2022-09-14T10:12:03.829Z,5.00
2022-09-14T10:14:34.024Z,4.68
2022-09-14T10:17:21.797Z,5.93
2022-09-14T10:19:51.494Z,4.20
2022-09-14T10:22:31.040Z,4.13
2022-09-14T10:25:22.332Z,3.40
2022-09-14T10:27:56.066Z,3.35
2022-09-14T10:30:49.487Z,3.28
2022-09-14T10:33:18.457Z,3.55
2022-09-14T10:36:21.894Z,3.58
2022-09-14T10:38:53.061Z,3.38
2022-09-14T10:41:32.074Z,2.47
2022-09-14T10:44:19.479Z,3.15
2022-09-14T10:47:06.146Z,3.00
2022-09-14T10:49:41.002Z,2.80
2022-09-14T10:52:20.118Z,2.67
2022-09-14T10:54:56.753Z,2.80
2022-09-14T10:57:55.904Z,2.70
2022-09-14T11:00:23.833Z,3.30
2022-09-14T11:02:54.378Z,3.33
2022-09-14T11:05:37.994Z,3.50
2022-09-14T11:08:32.024Z,3.83
2022-09-14T11:11:40.455Z,3.85
2022-09-14T11:14:29.178Z,3.88
2022-09-14T11:17:01.913Z,3.35
2022-09-14T11:20:11.924Z,3.80
2022-09-14T11:23:10.078Z,3.55
2022-09-14T11:25:53.383Z,4.30
2022-09-14T11:28:29.037Z,3.97
2022-09-14T11:32:04.133Z,4.13
2022-09-14T11:34:54.638Z,3.67
2022-09-14T11:37:43.247Z,3.33
2022-09-14T11:40:52.441Z,3.25
2022-09-14T11:43:42.941Z,3.20
2022-09-14T11:46:32.403Z,3.53
2022-09-14T11:49:45.150Z,3.35
2022-09-14T11:52:15.322Z,3.80
2022-09-14T11:54:46.879Z,3.03
2022-09-14T11:57:18.441Z,3.10
2022-09-14T11:59:50.516Z,2.97
2022-09-14T12:02:27.549Z,2.72
2022-09-14T12:05:21.366Z,2.50
2022-09-14T12:07:50.244Z,2.53
2022-09-14T12:10:20.173Z,2.08
2022-09-14T12:12:50.574Z,1.60
2022-09-14T12:15:23.269Z,1.98
2022-09-14T12:17:52.729Z,1.80
2022-09-14T12:20:40.976Z,2.05
2022-09-14T12:23:14.205Z,1.92
2022-09-14T12:26:05.933Z,1.65
2022-09-14T12:28:36.830Z,2.10
2022-09-14T12:31:04.566Z,1.67
2022-09-14T12:33:32.337Z,1.75
2022-09-14T12:36:01.751Z,1.50
2022-09-14T12:38:38.468Z,1.63
2022-09-14T12:41:08.781Z,1.20
2022-09-14T12:43:36.196Z,1.60
2022-09-14T12:46:09.572Z,1.60
2022-09-14T12:48:46.103Z,1.90
2022-09-14T12:51:25.794Z,2.47
2022-09-14T12:54:05.213Z,1.85
2022-09-14T12:57:00.710Z,1.40
2022-09-14T12:59:49.365Z,1.67
2022-09-14T13:02:44.338Z,1.40
2022-09-14T13:05:18.111Z,1.95
2022-09-14T13:07:46.998Z,1.58
2022-09-14T13:10:37.938Z,1.90
2022-09-14T13:13:18.773Z,2.08
2022-09-14T13:15:59.663Z,2.10
2022-09-14T13:18:36.526Z,2.13
2022-09-14T13:21:17.130Z,2.13
2022-09-14T13:23:45.102Z,2.10
2022-09-14T13:26:18.623Z,1.77
2022-09-14T13:28:49.266Z,2.05
2022-09-14T13:31:35.097Z,2.00
2022-09-14T13:34:04.936Z,2.35
2022-09-14T13:36:40.796Z,1.88
2022-09-14T13:39:24.149Z,1.67
2022-09-14T13:41:52.531Z,1.73
2022-09-14T13:44:25.135Z,1.73
2022-09-14T13:46:53.392Z,1.45
2022-09-14T13:49:21.413Z,1.70
2022-09-14T13:51:48.954Z,1.42
2022-09-14T13:54:36.665Z,1.40
2022-09-14T13:57:16.924Z,2.30
2022-09-14T14:00:12.526Z,1.80
2022-09-14T14:02:46.149Z,1.50
2022-09-14T14:05:27.237Z,1.48
2022-09-14T14:07:57.048Z,1.50
2022-09-14T14:10:39.170Z,1.38
2022-09-14T14:13:06.856Z,1.40
2022-09-14T14:15:42.801Z,1.90
2022-09-14T14:18:30.099Z,1.65
2022-09-14T14:21:10.731Z,1.10
2022-09-14T14:23:56.378Z,1.30
2022-09-14T14:26:27.463Z,1.50
2022-09-14T14:28:55.081Z,1.45
2022-09-14T14:31:26.288Z,1.50
2022-09-14T14:33:55.830Z,1.40
2022-09-14T14:36:23.469Z,1.70
2022-09-14T14:38:51.046Z,1.30
2022-09-14T14:41:22.051Z,1.67
2022-09-14T14:43:50.818Z,1.45
2022-09-14T14:46:18.838Z,1.45
2022-09-14T14:48:46.395Z,9.18
2022-09-14T14:51:15.189Z,30.35
2022-09-14T14:53:43.148Z,19.85
2022-09-14T14:56:12.635Z,17.25
2022-09-14T14:58:47.612Z,5.00
2022-09-14T15:01:16.396Z,2.20
2022-09-14T15:03:44.553Z,2.97
2022-09-14T15:06:21.192Z,3.50
2022-09-14T15:08:52.309Z,1.75
2022-09-14T15:11:19.763Z,2.05
2022-09-14T15:13:48.429Z,1.73
2022-09-14T15:16:17.216Z,1.48
2022-09-14T15:18:45.201Z,2.00
2022-09-14T15:21:12.623Z,1.60
2022-09-14T15:23:40.466Z,1.70
2022-09-14T15:26:08.449Z,1.30
2022-09-14T15:28:38.511Z,1.60
2022-09-14T15:31:07.937Z,1.55
2022-09-14T15:33:35.588Z,1.40
2022-09-14T15:36:03.847Z,1.52
2022-09-14T15:38:31.425Z,1.35
2022-09-14T15:40:58.997Z,1.65
2022-09-14T15:43:26.464Z,1.77
2022-09-14T15:45:54.329Z,1.60
2022-09-14T15:48:21.906Z,1.45
2022-09-14T15:50:49.340Z,1.30
2022-09-14T15:53:18.357Z,1.80
2022-09-14T15:55:45.784Z,1.60
2022-09-14T15:58:13.805Z,1.52
2022-09-14T16:00:45.148Z,1.65
2022-09-14T16:03:12.922Z,1.40
2022-09-14T16:05:40.602Z,1.35
2022-09-14T16:08:08.107Z,1.77
2022-09-14T16:10:35.594Z,1.40
2022-09-14T16:13:03.029Z,1.73
2022-09-14T16:15:30.467Z,1.48
2022-09-14T16:17:57.948Z,1.65
2022-09-14T16:20:25.674Z,1.50
2022-09-14T16:22:53.278Z,1.73
2022-09-14T16:25:20.949Z,1.80
2022-09-14T16:27:48.978Z,1.35
2022-09-14T16:30:16.819Z,1.40
2022-09-14T16:32:44.712Z,1.75
2022-09-14T16:35:12.126Z,1.50
2022-09-14T16:37:39.546Z,1.88
2022-09-14T16:40:07.537Z,1.85
2022-09-14T16:42:34.971Z,1.80
2022-09-14T16:45:03.173Z,1.77
2022-09-14T16:47:32.233Z,2.17
2022-09-14T16:49:59.924Z,1.50
2022-09-14T16:52:29.697Z,1.45
2022-09-14T16:57:26.841Z,1.40
2022-09-14T16:59:54.513Z,1.40
2022-09-14T17:02:22.675Z,1.75
2022-09-14T17:04:50.430Z,1.80
2022-09-14T17:07:18.109Z,1.63
2022-09-14T17:09:45.600Z,1.85
2022-09-14T17:12:13.185Z,1.02
2022-09-14T17:14:40.704Z,1.60
2022-09-14T17:17:08.347Z,1.35
2022-09-14T17:19:36.072Z,1.42
2022-09-14T17:22:05.162Z,1.60
2022-09-14T17:24:32.626Z,1.50
2022-09-14T17:27:00.097Z,1.85
2022-09-14T17:29:28.278Z,1.88
2022-09-14T17:31:55.844Z,1.98
2022-09-14T17:34:23.690Z,1.33
2022-09-14T17:36:51.194Z,1.55
2022-09-14T17:39:18.811Z,1.63
2022-09-14T17:41:46.200Z,1.40
2022-09-14T17:44:14.971Z,1.60
2022-09-14T17:46:51.147Z,1.48
2022-09-14T17:49:21.730Z,1.88
2022-09-14T17:51:50.267Z,1.92
2022-09-14T17:54:19.304Z,1.45
2022-09-14T17:56:47.346Z,1.70
2022-09-14T17:59:17.753Z,2.60
2022-09-14T18:01:45.248Z,2.10
2022-09-14T18:04:15.237Z,2.15
2022-09-14T18:06:48.903Z,2.15
2022-09-14T18:09:21.688Z,2.30
2022-09-14T18:11:50.442Z,2.00
2022-09-14T18:14:19.436Z,2.28
2022-09-14T18:16:46.950Z,3.08
2022-09-14T18:19:15.472Z,2.25
2022-09-14T18:21:43.482Z,2.75
2022-09-14T18:24:11.905Z,2.47
2022-09-14T18:26:39.326Z,2.97
2022-09-14T18:29:07.519Z,2.70
2022-09-14T18:31:35.113Z,2.58
2022-09-14T18:34:02.779Z,2.78
2022-09-14T18:36:30.972Z,2.40
2022-09-14T18:38:58.870Z,2.65
2022-09-14T18:41:31.413Z,2.30
2022-09-14T18:43:59.131Z,2.70
2022-09-14T18:46:28.523Z,2.00
2022-09-14T18:48:59.620Z,2.15
2022-09-14T18:51:28.869Z,2.20
2022-09-14T18:54:03.227Z,2.65
2022-09-14T18:56:33.241Z,2.85
2022-09-14T18:59:02.444Z,2.95
2022-09-14T19:01:30.191Z,2.67
2022-09-14T19:03:58.279Z,2.25
2022-09-14T19:06:26.037Z,3.20
2022-09-14T19:08:53.607Z,7.18
2022-09-14T19:11:27.025Z,5.45
2022-09-14T19:14:10.052Z,3.97
2022-09-14T19:16:41.656Z,10.30
2022-09-14T19:19:12.785Z,5.57
2022-09-14T19:21:40.614Z,5.22
2022-09-14T19:24:11.615Z,3.83
2022-09-14T19:26:46.460Z,2.97
2022-09-14T19:29:20.123Z,2.35
2022-09-14T19:31:51.820Z,2.97
2022-09-14T19:34:21.048Z,2.42
2022-09-14T19:36:49.818Z,2.80
2022-09-14T19:39:17.214Z,2.55
2022-09-14T19:41:44.688Z,3.67
2022-09-14T19:44:12.894Z,2.72
2022-09-14T19:46:40.513Z,2.63
2022-09-14T19:49:14.772Z,3.20
2022-09-14T19:51:42.553Z,2.78
2022-09-14T19:54:10.035Z,3.10
2022-09-14T19:56:38.307Z,3.33
2022-09-14T19:59:07.265Z,3.47
2022-09-14T20:01:37.349Z,3.50
2022-09-14T20:04:06.362Z,3.80
2022-09-14T20:06:36.792Z,3.80
2022-09-14T20:09:07.685Z,3.60
2022-09-14T20:14:06.795Z,3.45
2022-09-14T20:16:40.287Z,3.83
2022-09-14T20:19:10.325Z,3.58
2022-09-14T20:21:38.506Z,4.23
2022-09-14T20:24:16.705Z,4.38
2022-09-14T20:26:47.046Z,4.40
2022-09-14T20:29:15.857Z,4.07
2022-09-14T20:31:43.961Z,4.43
2022-09-14T20:34:12.340Z,4.28
2022-09-14T20:36:40.068Z,5.53
2022-09-14T20:39:07.562Z,3.20
2022-09-14T20:41:35.920Z,5.00
2022-09-14T20:44:04.094Z,5.70
2022-09-14T20:46:43.220Z,5.82
2022-09-14T20:49:13.754Z,5.90
2022-09-14T20:51:42.058Z,6.28
2022-09-14T20:54:14.559Z,6.70
2022-09-14T20:56:43.223Z,6.63
2022-09-14T20:59:13.706Z,7.32
2022-09-14T21:01:43.465Z,7.85
2022-09-14T21:04:14.873Z,8.02
2022-09-14T21:06:45.458Z,8.48
2022-09-14T21:09:14.298Z,8.70
2022-09-14T21:11:42.156Z,9.18
2022-09-14T21:14:09.670Z,11.38
2022-09-14T21:16:42.727Z,11.27
2022-09-14T21:19:17.579Z,11.63
2022-09-14T21:21:45.996Z,12.50
2022-09-14T21:24:15.022Z,13.75
2022-09-14T21:26:43.505Z,13.43
2022-09-14T21:29:14.500Z,11.77
2022-09-14T21:31:42.283Z,11.57
2022-09-14T21:34:11.290Z,10.80
2022-09-14T21:36:42.015Z,10.63
2022-09-14T21:39:12.669Z,10.20
2022-09-14T21:41:41.542Z,9.65
2022-09-14T21:44:09.109Z,10.27
2022-09-14T21:46:36.863Z,8.93
2022-09-14T21:49:04.526Z,10.63
2022-09-14T21:51:35.858Z,10.02
2022-09-14T21:54:09.266Z,8.88
2022-09-14T21:56:38.824Z,9.15
2022-09-14T21:59:14.097Z,9.40
2022-09-14T22:01:42.101Z,8.73
2022-09-14T22:04:17.437Z,8.85
2022-09-14T22:06:45.653Z,8.50
2022-09-14T22:09:15.581Z,9.18
2022-09-14T22:11:43.979Z,9.02
2022-09-14T22:14:14.755Z,8.48
2022-09-14T22:16:42.787Z,8.73
2022-09-14T22:19:26.092Z,8.63
2022-09-14T22:21:54.118Z,7.88
2022-09-14T22:24:27.285Z,8.43
2022-09-14T22:26:56.060Z,8.30
2022-09-14T22:29:24.585Z,7.80
2022-09-14T22:31:52.386Z,8.13
2022-09-14T22:34:21.286Z,7.53
2022-09-14T22:36:48.705Z,8.60
2022-09-14T22:39:16.269Z,8.15
2022-09-14T22:41:43.940Z,7.22
2022-09-14T22:44:12.753Z,8.00
2022-09-14T22:46:40.689Z,6.93
2022-09-14T22:49:08.230Z,6.90
2022-09-14T22:51:35.885Z,6.93
2022-09-14T22:54:03.981Z,7.43
2022-09-14T22:56:35.338Z,7.32
2022-09-14T22:59:05.210Z,8.00
2022-09-14T23:01:35.699Z,7.45
2022-09-14T23:04:06.763Z,7.20
2022-09-14T23:06:40.782Z,7.50
2022-09-14T23:09:10.453Z,6.65
2022-09-14T23:11:38.220Z,6.97
2022-09-14T23:14:05.607Z,7.22
2022-09-14T23:16:33.039Z,6.90
2022-09-14T23:19:02.816Z,8.30
2022-09-14T23:21:31.377Z,7.00
2022-09-14T23:24:06.152Z,7.82
2022-09-14T23:26:34.242Z,7.45
2022-09-14T23:29:07.061Z,7.75
2022-09-14T23:31:34.805Z,7.68
2022-09-14T23:34:03.364Z,8.73
2022-09-14T23:36:31.520Z,7.57
2022-09-14T23:38:59.673Z,7.43
2022-09-14T23:41:28.476Z,7.07
2022-09-14T23:43:56.298Z,7.65
2022-09-14T23:46:23.944Z,7.60
2022-09-14T23:48:51.481Z,8.15
2022-09-14T23:51:19.295Z,8.23
2022-09-14T23:53:46.980Z,8.05
2022-09-14T23:56:14.826Z,7.57
2022-09-14T23:58:43.468Z,8.00
